EGPC

Wick Airport

Wick, United Kingdom
METAR EGPC 180650Z AUTO 21003KT 9999 NCD 02/M00 Q1016
Observed Flight Rules
Feb-18 @ 06:50 UTC (23 minutes ago) Visual Flight Rules
Wind Visibility Clouds
210° at 3 knots 10,000+ meters
  • Clear skies
Temperatures Readings
Current 2°C / 36°F
Dewpoint 0°C / 32°F
Humidity 87%
Altimeter 30" Hg
Pressure 1016 hPa
Elevation 39
METAR EGPC 180650Z AUTO 21003KT 9999 NCD 02/M00 Q1016
Observed Flight Rules
Feb-18 @ 06:50 UTC
(23 minutes ago)
VFR
Wind Visibility
210° at 3 knots 10,000+ meters
Clouds
  • Clear skies
Temperature Dewpoint
2°C / 36°F 0°C / 32°F
Humidity Altimeter Pressure
87% 30" Hg 1016 hPa